WAJJ/DJJ METAR and TAF weather

Enter ICAO airport designator
Station Type Date Time Source
WAJJ METAR 2021/02/28 04:00 UTC NOAA

WAJJ 280400Z 27011KT 9999 SCT013 31/24 Q1006 NOSIG


Station Type Date Time Source
WAJJ Decoded METAR 2021/02/28 04:00 UTC NOAA

Jayapura / Sentani, Indonesia (WAJJ) 02-34S 140-29E 99M
Feb 27, 2021 - 11:00 PM EST / 2021.02.28 0400 UTC
Wind: from the W (270 degrees) at 13 MPH (11 KT):0
Visibility: greater than 7 mile(s):0
Sky conditions: partly cloudy
Temperature: 87 F (31 C)
Heat index: 95.7 F (35.4 C):1
Dew Point: 75 F (24 C)
Relative Humidity: 66%
Pressure (altimeter): 29.71 in. Hg (1006 hPa)
ob: WAJJ 280400Z 27011KT 9999 SCT013 31/24 Q1006 NOSIG
cycle: 4

Station Type Date Time Source
WAJJ TAF 2013/03/11 12:00 UTC NOAA

TAF WAJJ 111100Z 1112/1212 29006KT 5000 HZ SCT016
TEMPO 1113/1121 4000 RA FEW014CB
BECMG 1200/1202 28012KT 9999
TEMPO 1207/1212 6000 RA FEW014CB

Example: see airport list